Hlavní strana
METAR-TAF:

METAR-TAF

Letiště :

Mezinárodní letiště Krále Abda al-Azíze

Džidda, Saúdská Arábie

zeměpisná šířka: 21-42N, zeměpisná délka: 039-11E, výška: 15 m

Aktuální stav počasí

Zpráva byla vytvořena před 21 minutami, v 06:00 UTC
Bezvětří
Teplota 25°C
Vlhkost vzduchu 44%
Tlak 1014 hPa
Viditelnost: 4000 m
zákal

METAR: OEJN 240600Z 00000KT 4000 HZ NSC 25/12 Q1014 NOSIG

Čas: 09:21 (06:21 UTC)

Předpověď počasí

Zpráva byla vytvořena před 1 hodinou a 21 minutami, v 05:00 UTC
Předpověď platná od 24 v 06 UTC do 25 v 12 UTC
Severní vítr 8 kt
Viditelnost: 6000 m
Změna
od 24 v 08 UTC do 24 v 10 UTC
Západní vítr 13 kt
Dočasný
od 24 v 10 UTC do 24 v 16 UTC
Viditelnost: 4000 m
rozsáhlý prach
Změna
od 24 v 16 UTC do 24 v 18 UTC
Severní vítr 6 kt

TAF: OEJN 240500Z 2406/2512 36008KT 6000 NSC BECMG 2408/2410 28013KT TEMPO 2410/2416 4000 DU BECMG 2416/2418 35006KT

Stav a předpovědi počasí z více než 4 000 letišť (zprávy METAR a TAF).

Červené a žluté tečky na mapě představují dostupné meteorologické stanice.

Když kurzor umístíte na tečku, zobrazí se název stanice.

Pak kliknutím zobrazíte stav a předpověď počasí.

Chcete-li změnit mapu, kliknutím na zelené tlačítko se znaménkem +mapu přiblížíte, kliknutím na zelené tlačítko se znaménkem – mapu oddálíte a kliknutím na zelené šipky přejdete na sousední mapy.


METAR-TAF: